createdAt,value
2022-10-28T00:01:25.775Z,18271.59
2022-10-28T00:03:58.601Z,18253.31
2022-10-28T00:06:30.149Z,18255.34
2022-10-28T00:08:59.185Z,18257.38
2022-10-28T00:11:30.359Z,18285.81
2022-10-28T00:14:01.455Z,18273.63
2022-10-28T00:16:32.542Z,18293.94
2022-10-28T00:19:03.872Z,18251.28
2022-10-28T00:21:36.269Z,18285.81
2022-10-28T00:24:05.415Z,18255.34
2022-10-28T00:26:36.340Z,18275.66
2022-10-28T00:29:07.796Z,18265.50
2022-10-28T00:31:37.643Z,18261.44
2022-10-28T00:34:10.285Z,18255.34
2022-10-28T00:36:41.905Z,18302.06
2022-10-28T00:39:13.711Z,18271.59
2022-10-28T00:41:46.504Z,18298.00
2022-10-28T00:44:58.657Z,18316.28
2022-10-28T00:47:39.586Z,18332.53
2022-10-28T00:50:21.224Z,18312.22
2022-10-28T00:52:56.472Z,18316.28
2022-10-28T00:55:25.506Z,18344.72
2022-10-28T00:57:56.622Z,18312.22
2022-10-28T01:00:26.227Z,18356.91
2022-10-28T01:02:54.407Z,18379.25
2022-10-28T01:05:28.223Z,18393.47
2022-10-28T01:08:01.409Z,18381.28
2022-10-28T01:10:48.961Z,18373.16
2022-10-28T01:13:34.876Z,18352.84
2022-10-28T01:16:18.494Z,18389.41
2022-10-28T01:19:08.240Z,18371.13
2022-10-28T01:22:13.647Z,18365.03
2022-10-28T01:25:15.136Z,18389.41
2022-10-28T01:28:27.530Z,18365.03
2022-10-28T01:31:20.065Z,18401.59
2022-10-28T01:33:55.041Z,18405.66
2022-10-28T01:36:37.786Z,18423.94
2022-10-28T01:39:20.842Z,18383.31
2022-10-28T01:41:57.528Z,18407.69
2022-10-28T01:44:31.973Z,18393.47
2022-10-28T01:47:11.477Z,18387.38
2022-10-28T01:49:48.204Z,18425.97
2022-10-28T01:52:23.241Z,18446.31
2022-10-28T01:54:59.546Z,18415.81
2022-10-28T01:57:31.665Z,18421.91
2022-10-28T02:00:01.212Z,18434.13
2022-10-28T02:02:33.632Z,18403.63
2022-10-28T02:05:27.791Z,18371.13
2022-10-28T02:08:05.357Z,18395.50
2022-10-28T02:10:43.559Z,18350.81
2022-10-28T02:13:15.467Z,18346.75
2022-10-28T02:15:56.591Z,18373.16
2022-10-28T02:18:40.842Z,18395.50
2022-10-28T02:21:22.129Z,18395.50
2022-10-28T02:23:59.302Z,18371.13
2022-10-28T02:26:38.005Z,18334.56
2022-10-28T02:29:16.404Z,18363.00
2022-10-28T02:31:52.770Z,18308.16
2022-10-28T02:34:29.629Z,18306.13
2022-10-28T02:37:03.764Z,18259.41
2022-10-28T02:39:39.577Z,18257.38
2022-10-28T02:42:13.950Z,18283.78
2022-10-28T02:44:48.982Z,18224.84
2022-10-28T02:47:21.862Z,18247.22
2022-10-28T02:50:00.655Z,18224.84
2022-10-28T02:52:32.246Z,18232.97
2022-10-28T02:55:04.651Z,18202.50
2022-10-28T02:57:38.581Z,18208.59
2022-10-28T03:00:11.159Z,18174.06
2022-10-28T03:02:39.210Z,18165.94
2022-10-28T03:05:10.333Z,18172.03
2022-10-28T03:07:38.562Z,18139.53
2022-10-28T03:10:07.795Z,18157.81
2022-10-28T03:12:35.757Z,18127.34
2022-10-28T03:15:04.462Z,18159.84
2022-10-28T03:17:32.583Z,18121.25
2022-10-28T03:20:00.649Z,18139.53
2022-10-28T03:22:29.934Z,18155.78
2022-10-28T03:24:57.927Z,18139.53
2022-10-28T03:27:25.918Z,18100.94
2022-10-28T03:29:53.874Z,18098.91
2022-10-28T03:34:54.723Z,18131.41
2022-10-28T03:37:22.654Z,18129.38
2022-10-28T03:39:51.962Z,18159.84
2022-10-28T03:42:19.899Z,18147.66
2022-10-28T03:44:47.878Z,18170.00
2022-10-28T03:47:15.841Z,18155.78
2022-10-28T03:49:43.798Z,18170.00
2022-10-28T03:52:12.098Z,18172.03
2022-10-28T03:54:40.073Z,18186.25
2022-10-28T03:57:09.473Z,18245.19
2022-10-28T03:59:37.453Z,18265.50
2022-10-28T04:02:05.580Z,18245.19
2022-10-28T04:04:33.675Z,18279.72
2022-10-28T04:07:01.651Z,18239.09
2022-10-28T04:09:29.602Z,18287.84
2022-10-28T04:11:57.611Z,18239.09
2022-10-28T04:14:26.985Z,18212.66
2022-10-28T04:16:54.951Z,18245.19
2022-10-28T04:19:22.916Z,18204.53
2022-10-28T04:21:50.929Z,18235.00
2022-10-28T04:24:18.936Z,18224.84
2022-10-28T04:26:46.898Z,18224.84
2022-10-28T04:29:14.857Z,18206.56
2022-10-28T04:31:45.520Z,18172.03
2022-10-28T04:34:15.621Z,18208.59
2022-10-28T04:36:43.617Z,18273.63
2022-10-28T04:39:11.835Z,18188.28
2022-10-28T04:41:41.690Z,18200.47
2022-10-28T04:44:09.777Z,18212.66
2022-10-28T04:46:37.816Z,18192.34
2022-10-28T04:49:07.505Z,18235.00
2022-10-28T04:51:35.565Z,18170.00
2022-10-28T04:54:04.044Z,18141.56
2022-10-28T04:56:33.232Z,18151.72
2022-10-28T04:59:01.910Z,18157.81
2022-10-28T05:01:29.905Z,18131.41
2022-10-28T05:03:57.949Z,18139.53
2022-10-28T05:06:27.278Z,18155.78
2022-10-28T05:08:55.398Z,18251.28
2022-10-28T05:11:23.445Z,18159.84
2022-10-28T05:13:53.013Z,18212.66
2022-10-28T05:16:21.081Z,18163.91
2022-10-28T05:18:49.362Z,18139.53
2022-10-28T05:21:17.884Z,18135.47
2022-10-28T05:23:47.510Z,18129.38
2022-10-28T05:26:16.077Z,18123.28
2022-10-28T05:28:44.269Z,18226.88
2022-10-28T05:31:12.284Z,18188.28
2022-10-28T05:33:40.225Z,18186.25
2022-10-28T05:36:09.411Z,18176.09
2022-10-28T05:38:37.726Z,18200.47
2022-10-28T05:41:07.256Z,18151.72
2022-10-28T05:43:35.233Z,18202.50
2022-10-28T05:46:03.867Z,18222.81
2022-10-28T05:48:32.115Z,18170.00
2022-10-28T05:51:00.053Z,18178.13
2022-10-28T05:53:28.010Z,18194.38
2022-10-28T05:55:55.945Z,18194.38
2022-10-28T05:58:25.211Z,18226.88
2022-10-28T06:00:53.215Z,18237.06
2022-10-28T06:03:21.179Z,18188.28
2022-10-28T06:05:49.328Z,18210.63
2022-10-28T06:08:17.375Z,18200.47
2022-10-28T06:10:51.613Z,18143.59
2022-10-28T06:13:19.588Z,18180.16
2022-10-28T06:15:52.438Z,18206.56
2022-10-28T06:18:21.182Z,18174.06
2022-10-28T06:20:53.455Z,18170.00
2022-10-28T06:23:21.632Z,18178.13
2022-10-28T06:25:50.356Z,18188.28
2022-10-28T06:28:18.249Z,18165.94
2022-10-28T06:30:46.210Z,18145.63
2022-10-28T06:33:15.545Z,18190.31
2022-10-28T06:35:43.785Z,18141.56
2022-10-28T06:38:11.863Z,18159.84
2022-10-28T06:40:39.806Z,18139.53
2022-10-28T06:43:10.976Z,18119.22
2022-10-28T06:45:38.886Z,18190.31
2022-10-28T06:48:08.586Z,18220.78
2022-10-28T06:50:38.312Z,18194.38
2022-10-28T06:53:06.630Z,18206.56
2022-10-28T06:55:34.608Z,18237.06
2022-10-28T06:58:04.685Z,18251.28
2022-10-28T07:00:34.663Z,18330.50
2022-10-28T07:03:02.614Z,18375.19
2022-10-28T07:05:30.615Z,18444.28
2022-10-28T07:07:59.862Z,18423.94
2022-10-28T07:10:27.841Z,18442.25
2022-10-28T07:12:56.038Z,18482.88
2022-10-28T07:15:24.193Z,18574.28
2022-10-28T07:17:55.697Z,18582.44
2022-10-28T07:20:25.833Z,18639.31
2022-10-28T07:22:58.667Z,18708.41
2022-10-28T07:25:27.237Z,18688.06
2022-10-28T07:27:55.481Z,18732.78
2022-10-28T07:30:23.955Z,18734.81
2022-10-28T07:32:52.091Z,18795.75
2022-10-28T07:35:20.970Z,18816.06
2022-10-28T07:37:48.911Z,18848.59
2022-10-28T07:40:19.343Z,18860.78
2022-10-28T07:42:47.229Z,18885.16
2022-10-28T07:45:15.776Z,18832.34
2022-10-28T07:47:44.667Z,18875.00
2022-10-28T07:50:13.633Z,18856.72
2022-10-28T07:52:42.250Z,18870.94
2022-10-28T07:55:12.626Z,18883.13
2022-10-28T07:57:41.859Z,18982.69
2022-10-28T08:00:11.314Z,18879.06
2022-10-28T08:02:39.759Z,18944.09
2022-10-28T08:05:08.749Z,18958.31
2022-10-28T08:07:38.642Z,18984.72
2022-10-28T08:10:08.687Z,19007.06
2022-10-28T08:12:36.661Z,18994.88
2022-10-28T08:15:09.482Z,19031.47
2022-10-28T08:17:37.435Z,19009.09
2022-10-28T08:20:06.732Z,19045.69
2022-10-28T08:22:34.626Z,19035.53
2022-10-28T08:25:02.540Z,19037.56
2022-10-28T08:27:30.446Z,19094.44
2022-10-28T08:29:58.357Z,19080.22
2022-10-28T08:32:27.772Z,19100.53
2022-10-28T08:34:55.691Z,19070.06
2022-10-28T08:37:23.657Z,19025.38
2022-10-28T08:39:51.586Z,19057.88
2022-10-28T08:42:38.637Z,19011.13
2022-10-28T08:45:25.584Z,19043.66
2022-10-28T08:48:12.971Z,19021.31
2022-10-28T08:50:51.153Z,19021.31
2022-10-28T08:53:25.981Z,19063.97
2022-10-28T08:56:14.437Z,19031.47
2022-10-28T08:58:46.356Z,19080.22
2022-10-28T09:01:31.682Z,19092.41
2022-10-28T09:04:12.297Z,19088.34
2022-10-28T09:06:40.251Z,19114.78
2022-10-28T09:09:11.630Z,19167.59
2022-10-28T09:12:02.333Z,19187.91
2022-10-28T09:15:02.037Z,19187.91
2022-10-28T09:17:43.648Z,19232.63
2022-10-28T09:20:20.766Z,19277.34
2022-10-28T09:22:58.539Z,19212.31
2022-10-28T09:25:41.652Z,19317.97
2022-10-28T09:28:31.551Z,19391.13
2022-10-28T09:31:09.306Z,19393.16
2022-10-28T09:33:52.105Z,19484.59
2022-10-28T09:36:30.916Z,19592.31
2022-10-28T09:39:02.628Z,19630.94
2022-10-28T09:41:37.946Z,19651.25
2022-10-28T09:44:16.192Z,19663.44
2022-10-28T09:46:48.952Z,19695.97
2022-10-28T09:49:25.072Z,19691.91
2022-10-28T09:52:05.115Z,19643.13
2022-10-28T09:54:38.678Z,19639.06
2022-10-28T09:57:07.309Z,19643.13
2022-10-28T09:59:35.863Z,19663.44
2022-10-28T10:02:05.190Z,19726.44
2022-10-28T10:04:35.610Z,19704.09
2022-10-28T10:07:14.925Z,19728.47
2022-10-28T10:09:45.638Z,19783.34
2022-10-28T10:12:15.032Z,19771.16
2022-10-28T10:14:49.004Z,19761.00
2022-10-28T10:17:22.572Z,19744.75
2022-10-28T10:20:03.729Z,19720.34
2022-10-28T10:22:36.714Z,19754.91
2022-10-28T10:25:22.301Z,19712.22
2022-10-28T10:27:54.179Z,19740.69
2022-10-28T10:30:26.782Z,19815.88
2022-10-28T10:32:54.940Z,19864.66
2022-10-28T10:35:28.693Z,19799.63
2022-10-28T10:38:01.995Z,19809.78
2022-10-28T10:40:33.992Z,19793.50
2022-10-28T10:43:25.838Z,19744.75
2022-10-28T10:46:02.449Z,19801.66
2022-10-28T10:48:33.824Z,19889.03
2022-10-28T10:51:08.958Z,19978.47
2022-10-28T10:53:41.225Z,19986.59
2022-10-28T10:56:13.080Z,20043.50
2022-10-28T10:58:51.564Z,20088.22
2022-10-28T11:01:24.133Z,20074.00
2022-10-28T11:03:59.097Z,20159.34
2022-10-28T11:06:30.853Z,20151.22
2022-10-28T11:09:03.678Z,20183.75
2022-10-28T11:11:37.493Z,20228.47
2022-10-28T11:14:19.089Z,20224.41
2022-10-28T11:16:52.619Z,20193.91
2022-10-28T11:19:24.817Z,20260.97
2022-10-28T11:22:13.704Z,20234.56
2022-10-28T11:25:10.560Z,20230.50
2022-10-28T11:28:03.067Z,20246.75
2022-10-28T11:30:53.887Z,20305.69
2022-10-28T11:33:35.300Z,20319.94
2022-10-28T11:36:21.590Z,20321.97
2022-10-28T11:39:20.454Z,20362.63
2022-10-28T11:42:13.251Z,20356.50
2022-10-28T11:44:53.938Z,20411.41
2022-10-28T11:47:51.501Z,20421.56
2022-10-28T11:50:36.172Z,20437.81
2022-10-28T11:53:45.031Z,20504.91
2022-10-28T11:56:35.200Z,20606.53
2022-10-28T11:59:35.110Z,20596.38
2022-10-28T12:02:22.854Z,20582.16
2022-10-28T12:05:04.146Z,20671.59
2022-10-28T12:07:57.588Z,20647.19
2022-10-28T12:10:46.900Z,20726.47
2022-10-28T12:13:29.688Z,20874.88
2022-10-28T12:16:08.538Z,20885.03
2022-10-28T12:18:49.987Z,20980.59
2022-10-28T12:21:28.479Z,21002.94
2022-10-28T12:23:59.924Z,21029.38
2022-10-28T12:26:38.926Z,21187.97
2022-10-28T12:29:20.369Z,21358.75
2022-10-28T12:31:57.898Z,21606.78
2022-10-28T12:37:16.870Z,21543.75
2022-10-28T12:39:57.427Z,21417.69
2022-10-28T12:42:34.582Z,21340.44
2022-10-28T12:45:11.573Z,21273.34
2022-10-28T12:47:49.402Z,21212.34
2022-10-28T12:50:27.867Z,21122.91
2022-10-28T12:53:08.269Z,21122.91
2022-10-28T12:55:43.450Z,21074.09
2022-10-28T12:58:19.257Z,21013.13
2022-10-28T13:00:55.827Z,20974.50
2022-10-28T13:03:25.231Z,20952.13
2022-10-28T13:06:13.392Z,20891.13
2022-10-28T13:09:24.145Z,20846.41
2022-10-28T13:12:35.917Z,20844.38
2022-10-28T13:15:47.432Z,20791.53
2022-10-28T13:19:27.364Z,20730.53
2022-10-28T13:25:10.967Z,20685.81
2022-10-28T13:27:39.336Z,20671.59
2022-10-28T13:30:17.489Z,20630.94
2022-10-28T13:32:46.349Z,20602.47
2022-10-28T13:35:23.475Z,20574.00
2022-10-28T13:37:55.536Z,20565.88
2022-10-28T13:41:09.616Z,20563.84
2022-10-28T13:44:24.857Z,20557.75
2022-10-28T13:47:30.419Z,20569.94
2022-10-28T13:50:37.265Z,20565.88
2022-10-28T13:53:52.716Z,20559.78
2022-10-28T13:56:46.853Z,20547.59
2022-10-28T13:59:27.851Z,20551.66
2022-10-28T14:02:28.525Z,20610.59
2022-10-28T14:04:58.669Z,20596.38
2022-10-28T14:07:32.099Z,20604.50
2022-10-28T14:10:22.651Z,20608.56
2022-10-28T14:12:56.948Z,20586.22
2022-10-28T14:15:30.434Z,20584.19
2022-10-28T14:18:10.269Z,20563.84
2022-10-28T14:21:00.679Z,20563.84
2022-10-28T14:24:09.270Z,20561.81
2022-10-28T14:27:30.595Z,20574.00
2022-10-28T14:30:22.636Z,20571.97
2022-10-28T14:33:23.023Z,20543.53
2022-10-28T14:36:22.977Z,20569.94
2022-10-28T14:39:33.930Z,20590.28
2022-10-28T14:42:31.039Z,20519.13
2022-10-28T14:45:24.821Z,20559.78
2022-10-28T14:48:35.138Z,20559.78
2022-10-28T14:51:04.545Z,20549.63
2022-10-28T14:53:36.357Z,20535.41
2022-10-28T14:56:10.122Z,20513.03
2022-10-28T14:58:41.861Z,20535.41
2022-10-28T15:01:24.177Z,20533.34
2022-10-28T15:03:57.714Z,20519.13
2022-10-28T15:06:34.140Z,20506.94
2022-10-28T15:09:21.285Z,20513.03
2022-10-28T15:11:55.859Z,20462.22
2022-10-28T15:14:36.604Z,20492.72
2022-10-28T15:17:14.403Z,20476.44
2022-10-28T15:19:43.331Z,20496.78
2022-10-28T15:22:21.944Z,20464.25
2022-10-28T15:24:59.479Z,20413.44
2022-10-28T15:27:31.238Z,20356.50
2022-10-28T15:29:59.610Z,20399.19
2022-10-28T15:32:34.278Z,20352.44
2022-10-28T15:35:38.918Z,20346.34
2022-10-28T15:38:39.109Z,20297.56
2022-10-28T15:41:41.870Z,20324.00
2022-10-28T15:44:37.738Z,20319.94
2022-10-28T15:47:24.143Z,20263.00
2022-10-28T15:50:20.631Z,20240.66
2022-10-28T15:52:50.129Z,20232.53
2022-10-28T15:58:36.381Z,20200.00
2022-10-28T16:01:26.893Z,20218.31
2022-10-28T16:03:55.001Z,20208.13
2022-10-28T16:06:28.475Z,20238.63
2022-10-28T16:09:18.895Z,20232.53
2022-10-28T16:11:51.166Z,20204.06
2022-10-28T16:14:37.008Z,20206.09
2022-10-28T16:17:12.638Z,20208.13
2022-10-28T16:19:45.407Z,20183.75
2022-10-28T16:22:15.589Z,20228.47
2022-10-28T16:24:43.722Z,20173.59
2022-10-28T16:27:19.675Z,20185.78
2022-10-28T16:29:47.816Z,20214.22
2022-10-28T16:32:21.538Z,20204.06
2022-10-28T16:34:49.469Z,20143.09
2022-10-28T16:37:23.715Z,20208.13
2022-10-28T16:39:52.446Z,20159.34
2022-10-28T16:42:22.933Z,20147.16
2022-10-28T16:44:51.744Z,20143.09
2022-10-28T16:47:25.529Z,20118.69
2022-10-28T16:49:57.446Z,20092.28
2022-10-28T16:52:28.526Z,20069.94
2022-10-28T16:54:56.993Z,20065.84
2022-10-28T16:57:26.046Z,20088.22
2022-10-28T16:59:54.592Z,20029.28
2022-10-28T17:02:29.326Z,20049.59
2022-10-28T17:04:58.379Z,20025.22
2022-10-28T17:07:27.303Z,20008.94
2022-10-28T17:09:56.685Z,20041.47
2022-10-28T17:12:26.723Z,20108.53
2022-10-28T17:14:54.722Z,20090.25
2022-10-28T17:17:23.980Z,20041.47
2022-10-28T17:19:51.903Z,20057.72
2022-10-28T17:22:19.854Z,20057.72
2022-10-28T17:24:47.791Z,20069.94
2022-10-28T17:27:16.149Z,20096.34
2022-10-28T17:29:44.093Z,20130.91
2022-10-28T17:32:12.096Z,20086.19
2022-10-28T17:34:41.397Z,20076.03
2022-10-28T17:37:10.334Z,20053.66
2022-10-28T17:39:38.709Z,20098.38
2022-10-28T17:42:06.780Z,20155.28
2022-10-28T17:44:34.716Z,20118.69
2022-10-28T17:47:03.899Z,20074.00
2022-10-28T17:49:34.161Z,20112.59
2022-10-28T17:52:03.454Z,20094.31
2022-10-28T17:54:31.400Z,20076.03
2022-10-28T17:56:59.300Z,20088.22
2022-10-28T17:59:27.197Z,20076.03
2022-10-28T18:01:55.296Z,20057.72
2022-10-28T18:04:26.133Z,20045.53
2022-10-28T18:06:55.969Z,20057.72
2022-10-28T18:09:27.557Z,20043.50
2022-10-28T18:11:55.543Z,20069.94
2022-10-28T18:14:23.499Z,20019.13
2022-10-28T18:16:51.557Z,20029.28
2022-10-28T18:19:19.880Z,20043.50
2022-10-28T18:21:47.891Z,20067.88
2022-10-28T18:24:17.047Z,20041.47
2022-10-28T18:26:47.004Z,20004.88
2022-10-28T18:29:15.703Z,20112.59
2022-10-28T18:31:44.285Z,20090.25
2022-10-28T18:34:12.391Z,20110.56
2022-10-28T18:36:40.406Z,20088.22
2022-10-28T18:39:09.671Z,20094.31
2022-10-28T18:41:42.766Z,20086.19
2022-10-28T18:44:17.069Z,20139.03
2022-10-28T18:46:45.975Z,20100.41
2022-10-28T18:49:13.917Z,20069.94
2022-10-28T18:51:41.970Z,20078.06
2022-10-28T18:54:09.918Z,20065.84
2022-10-28T18:56:37.951Z,20065.84
2022-10-28T18:59:06.235Z,20000.81
2022-10-28T19:01:36.096Z,20006.91
2022-10-28T19:04:06.097Z,20000.81
2022-10-28T19:06:35.301Z,19986.59
2022-10-28T19:09:06.077Z,19982.53
2022-10-28T19:11:35.249Z,19947.97
2022-10-28T19:14:06.166Z,19962.19
2022-10-28T19:16:36.875Z,19923.59
2022-10-28T19:19:06.566Z,19935.78
2022-10-28T19:21:35.320Z,19909.34
2022-10-28T19:24:03.564Z,19913.44
2022-10-28T19:26:33.533Z,19915.47
2022-10-28T19:29:01.644Z,19907.31
2022-10-28T19:31:30.729Z,19929.69
2022-10-28T19:34:00.040Z,19882.94
2022-10-28T19:36:30.245Z,19891.06
2022-10-28T19:38:59.307Z,19923.59
2022-10-28T19:41:29.557Z,19911.41
2022-10-28T19:43:59.992Z,19895.13
2022-10-28T19:46:30.202Z,19925.63
2022-10-28T19:49:03.127Z,19870.75
2022-10-28T19:51:34.166Z,19901.22
2022-10-28T19:54:04.752Z,19872.78
2022-10-28T19:56:35.807Z,19824.00
2022-10-28T19:59:06.309Z,19795.53
2022-10-28T20:01:37.829Z,19805.72
2022-10-28T20:04:09.798Z,19809.78
2022-10-28T20:06:40.108Z,19846.34
2022-10-28T20:09:08.880Z,19828.06
2022-10-28T20:11:39.910Z,19824.00
2022-10-28T20:14:11.640Z,19913.44
2022-10-28T20:16:42.417Z,19887.00
2022-10-28T20:19:12.656Z,19889.03
2022-10-28T20:21:41.075Z,19872.78
2022-10-28T20:24:10.055Z,19862.63
2022-10-28T20:26:39.733Z,19880.91
2022-10-28T20:29:09.645Z,19821.97
2022-10-28T20:31:38.832Z,19891.06
2022-10-28T20:34:07.756Z,19878.88
2022-10-28T20:36:39.485Z,19854.50
2022-10-28T20:39:12.231Z,19803.69
2022-10-28T20:41:43.070Z,19897.16
2022-10-28T20:44:11.966Z,19817.91
2022-10-28T20:46:40.370Z,19856.53
2022-10-28T20:49:09.830Z,19834.16
2022-10-28T20:51:39.270Z,19807.75
2022-10-28T20:54:08.005Z,19830.09
2022-10-28T20:56:40.185Z,19846.34
2022-10-28T20:59:08.852Z,19826.03
2022-10-28T21:01:40.068Z,19809.78
2022-10-28T21:04:11.770Z,19801.66
2022-10-28T21:06:41.436Z,19748.81
2022-10-28T21:09:09.796Z,19748.81
2022-10-28T21:11:37.786Z,19785.38
2022-10-28T21:14:05.843Z,19740.69
2022-10-28T21:16:34.057Z,19687.84
2022-10-28T21:19:02.257Z,19710.19
2022-10-28T21:21:31.198Z,19671.56
2022-10-28T21:24:00.624Z,19643.13
2022-10-28T21:26:28.629Z,19639.06
2022-10-28T21:28:57.252Z,19592.31
2022-10-28T21:31:25.835Z,19608.56
2022-10-28T21:33:54.052Z,19590.28
2022-10-28T21:36:23.180Z,19612.63
2022-10-28T21:38:55.873Z,19610.59
2022-10-28T21:41:26.196Z,19610.59
2022-10-28T21:43:55.464Z,19643.13
2022-10-28T21:46:24.912Z,19588.25
2022-10-28T21:48:54.491Z,19555.75
2022-10-28T21:51:22.467Z,19539.47
2022-10-28T21:53:50.520Z,19553.72
2022-10-28T21:56:20.883Z,19504.94
2022-10-28T21:58:51.993Z,19488.69
2022-10-28T22:01:23.480Z,19468.34
2022-10-28T22:03:52.801Z,19500.88
2022-10-28T22:06:21.050Z,19498.84
2022-10-28T22:08:49.149Z,19515.09
2022-10-28T22:11:20.752Z,19496.81
2022-10-28T22:13:57.052Z,19460.22
2022-10-28T22:16:26.504Z,19488.69
2022-10-28T22:18:54.839Z,19472.41
2022-10-28T22:21:25.608Z,19466.31
2022-10-28T22:23:54.510Z,19443.97
2022-10-28T22:26:24.825Z,19456.16
2022-10-28T22:28:54.501Z,19407.38
2022-10-28T22:31:25.749Z,19409.41
2022-10-28T22:33:54.425Z,19411.44
2022-10-28T22:36:25.609Z,19411.44
2022-10-28T22:38:54.275Z,19397.22
2022-10-28T22:41:24.389Z,19413.47
2022-10-28T22:43:56.129Z,19391.13
2022-10-28T22:46:26.950Z,19366.75
2022-10-28T22:48:55.629Z,19366.75
2022-10-28T22:51:24.332Z,19376.91
2022-10-28T22:53:52.562Z,19328.13
2022-10-28T22:56:22.983Z,19362.69
2022-10-28T22:58:57.242Z,19317.97
2022-10-28T23:01:27.377Z,19317.97
2022-10-28T23:03:56.406Z,19303.75
2022-10-28T23:06:27.473Z,19281.41
2022-10-28T23:08:55.907Z,19295.63
2022-10-28T23:11:24.624Z,19303.75
2022-10-28T23:13:55.704Z,19271.25
2022-10-28T23:16:25.347Z,19287.50
2022-10-28T23:18:53.702Z,19336.25
2022-10-28T23:21:23.853Z,19287.50
2022-10-28T23:23:54.955Z,19299.69
2022-10-28T23:26:24.316Z,19248.88
2022-10-28T23:28:55.996Z,19279.38
2022-10-28T23:31:24.826Z,19240.75
2022-10-28T23:33:54.236Z,19269.22
2022-10-28T23:36:23.413Z,19261.06
2022-10-28T23:38:52.389Z,19267.16
2022-10-28T23:41:20.960Z,19285.47
2022-10-28T23:43:49.667Z,19224.50
2022-10-28T23:46:20.393Z,19216.38
2022-10-28T23:48:48.427Z,19236.69
2022-10-28T23:51:16.407Z,19222.47
2022-10-28T23:53:44.382Z,19175.72
2022-10-28T23:56:12.360Z,19206.22
2022-10-28T23:58:40.316Z,19183.84
